createdAt,value
2019-05-17T00:00:28.177Z,0
2019-05-17T00:01:02.413Z,0
2019-05-17T00:02:14.297Z,0
2019-05-17T00:03:27.862Z,0
2019-05-17T00:04:02.342Z,0
2019-05-17T00:05:14.280Z,0
2019-05-17T00:06:28.391Z,0.2
2019-05-17T00:07:02.317Z,0
2019-05-17T00:08:34.471Z,0
2019-05-17T00:09:27.578Z,0
2019-05-17T00:10:02.279Z,0
2019-05-17T00:11:16.650Z,0
2019-05-17T00:12:27.985Z,0
2019-05-17T00:13:02.363Z,0.2
2019-05-17T00:14:16.616Z,0.4
2019-05-17T00:15:28.179Z,0.4
2019-05-17T00:16:02.336Z,0.4
2019-05-17T00:17:14.416Z,0.4
2019-05-17T00:18:27.315Z,0.2
2019-05-17T00:19:02.289Z,0.2
2019-05-17T00:20:14.349Z,0.8
2019-05-17T00:21:28.319Z,0.4
2019-05-17T00:22:02.381Z,0
2019-05-17T00:23:14.308Z,0
2019-05-17T00:24:27.345Z,0.2
2019-05-17T00:25:02.345Z,0
2019-05-17T00:26:16.833Z,0
2019-05-17T00:27:27.348Z,0.4
2019-05-17T00:28:02.424Z,0
2019-05-17T00:29:14.359Z,0
2019-05-17T00:30:27.374Z,0
2019-05-17T00:31:02.271Z,0
2019-05-17T00:32:14.340Z,0.4
2019-05-17T00:33:28.070Z,0.6
2019-05-17T00:34:02.364Z,0.2
2019-05-17T00:35:14.298Z,0
2019-05-17T00:36:27.743Z,0
2019-05-17T00:37:02.359Z,0
2019-05-17T00:38:16.715Z,0.4
2019-05-17T00:38:52.418Z,0.4
2019-05-17T00:40:02.303Z,0.2
2019-05-17T00:41:14.352Z,0.4
2019-05-17T00:42:27.244Z,0
2019-05-17T00:43:02.380Z,0.2
2019-05-17T00:44:16.585Z,0.8
2019-05-17T00:45:27.574Z,0.4
2019-05-17T00:46:02.429Z,0.4
2019-05-17T00:47:14.287Z,0.6
2019-05-17T00:48:27.326Z,0.7
2019-05-17T00:49:02.415Z,0.4
2019-05-17T00:50:16.401Z,0.6
2019-05-17T00:51:02.447Z,0.6
2019-05-17T00:52:02.274Z,0
2019-05-17T00:53:16.813Z,0.6
2019-05-17T00:54:27.767Z,0.6
2019-05-17T00:55:02.388Z,0.8
2019-05-17T00:56:14.308Z,0.8
2019-05-17T00:57:28.199Z,0
2019-05-17T00:58:02.331Z,0
2019-05-17T00:59:14.271Z,0.2
2019-05-17T01:00:28.701Z,0
2019-05-17T01:01:02.348Z,0.2
2019-05-17T01:02:16.758Z,0
2019-05-17T01:03:27.784Z,0
2019-05-17T01:04:02.273Z,0
2019-05-17T01:05:16.490Z,0
2019-05-17T01:06:28.376Z,0
2019-05-17T01:07:02.365Z,0
2019-05-17T01:08:14.283Z,0
2019-05-17T01:09:04.598Z,0
2019-05-17T01:10:02.446Z,0.2
2019-05-17T01:11:16.738Z,0
2019-05-17T01:12:27.994Z,0
2019-05-17T01:13:02.280Z,0
2019-05-17T01:14:14.338Z,0
2019-05-17T01:15:28.140Z,0
2019-05-17T01:16:02.368Z,0
2019-05-17T01:17:16.821Z,0
2019-05-17T01:18:27.775Z,0
2019-05-17T01:19:02.329Z,0
2019-05-17T01:20:14.354Z,0
2019-05-17T01:21:27.113Z,0
2019-05-17T01:22:02.313Z,0
2019-05-17T01:23:16.677Z,0
2019-05-17T01:24:28.250Z,0
2019-05-17T01:25:02.287Z,0
2019-05-17T01:26:14.327Z,0
2019-05-17T01:27:27.177Z,0
2019-05-17T01:28:02.378Z,0
2019-05-17T01:29:14.294Z,0
2019-05-17T01:30:27.467Z,0
2019-05-17T01:31:02.318Z,0
2019-05-17T01:32:14.255Z,0
2019-05-17T01:33:27.336Z,0
2019-05-17T01:34:02.295Z,0
2019-05-17T01:35:17.289Z,0
2019-05-17T01:36:27.191Z,0
2019-05-17T01:37:02.430Z,0
2019-05-17T01:38:14.310Z,0
2019-05-17T01:39:27.701Z,0
2019-05-17T01:40:02.365Z,0
2019-05-17T01:41:14.382Z,0.2
2019-05-17T01:42:27.319Z,0
2019-05-17T01:43:02.420Z,0
2019-05-17T01:44:16.935Z,0
2019-05-17T01:45:27.750Z,0
2019-05-17T01:46:02.271Z,0
2019-05-17T01:47:16.289Z,0.2
2019-05-17T01:48:27.911Z,0
2019-05-17T01:49:02.351Z,0
2019-05-17T01:50:14.301Z,0
2019-05-17T01:51:27.146Z,0
2019-05-17T01:52:02.579Z,0
2019-05-17T01:52:38.301Z,0
2019-05-17T01:53:16.445Z,0
2019-05-17T01:54:27.715Z,0
2019-05-17T01:55:02.316Z,0
2019-05-17T01:56:16.746Z,0
2019-05-17T01:57:28.275Z,0
2019-05-17T01:58:02.262Z,0
2019-05-17T01:59:14.312Z,0
2019-05-17T02:00:27.397Z,0
2019-05-17T02:01:02.451Z,0
2019-05-17T02:02:16.613Z,0
2019-05-17T02:03:27.608Z,0
2019-05-17T02:04:02.317Z,0
2019-05-17T02:05:16.705Z,0
2019-05-17T02:06:27.917Z,0
2019-05-17T02:07:02.297Z,0
2019-05-17T02:08:14.350Z,0
2019-05-17T02:09:42.306Z,0
2019-05-17T02:11:14.320Z,0
2019-05-17T02:12:27.581Z,0
2019-05-17T02:13:02.334Z,0
2019-05-17T02:14:16.981Z,0
2019-05-17T02:15:27.578Z,0
2019-05-17T02:16:02.295Z,0
2019-05-17T02:17:14.376Z,0
2019-05-17T02:18:27.459Z,0
2019-05-17T02:19:02.282Z,0
2019-05-17T02:20:16.837Z,0
2019-05-17T02:21:28.275Z,0
2019-05-17T02:22:02.358Z,0
2019-05-17T02:23:14.282Z,0
2019-05-17T02:24:28.307Z,0
2019-05-17T02:25:02.715Z,0
2019-05-17T02:26:14.386Z,0
2019-05-17T02:27:44.922Z,0
2019-05-17T02:29:14.353Z,0
2019-05-17T02:29:52.656Z,0
2019-05-17T02:31:04.395Z,0
2019-05-17T02:32:14.318Z,0
2019-05-17T02:33:26.390Z,0
2019-05-17T02:34:03.953Z,0
2019-05-17T02:35:15.858Z,0
2019-05-17T02:35:54.043Z,0
2019-05-17T02:37:03.928Z,0
2019-05-17T02:38:14.393Z,0
2019-05-17T02:38:53.907Z,0
2019-05-17T02:40:09.182Z,0
2019-05-17T02:41:15.140Z,0
2019-05-17T02:41:53.862Z,0
2019-05-17T02:43:04.251Z,0
2019-05-17T02:44:14.299Z,0
2019-05-17T02:44:53.947Z,0
2019-05-17T02:46:04.882Z,0
2019-05-17T02:47:14.282Z,0
2019-05-17T02:47:53.948Z,0
2019-05-17T02:49:04.123Z,0
2019-05-17T02:49:53.232Z,0.4
2019-05-17T02:51:04.757Z,0.4
2019-05-17T02:52:14.312Z,0
2019-05-17T02:52:53.593Z,0
2019-05-17T02:54:05.078Z,0
2019-05-17T02:55:14.466Z,0.2
2019-05-17T02:56:26.333Z,0
2019-05-17T02:57:04.166Z,0
2019-05-17T02:58:26.367Z,0
2019-05-17T02:59:04.599Z,0.2
2019-05-17T03:00:14.990Z,0.9
2019-05-17T03:00:54.151Z,0.8
2019-05-17T03:02:04.741Z,0
2019-05-17T03:03:14.427Z,0.2
2019-05-17T03:03:53.708Z,0.2
2019-05-17T03:05:05.055Z,0.7
2019-05-17T03:06:14.628Z,0
2019-05-17T03:07:04.851Z,0.2
2019-05-17T03:08:14.297Z,0.8
2019-05-17T03:08:53.362Z,0.8
2019-05-17T03:10:29.431Z,0.2
2019-05-17T03:11:14.569Z,0.4
2019-05-17T03:11:57.606Z,0.2
2019-05-17T03:13:05.105Z,0.2
2019-05-17T03:14:14.329Z,0
2019-05-17T03:14:53.573Z,0.4
2019-05-17T03:16:04.698Z,0.6
2019-05-17T03:17:15.024Z,0.4
2019-05-17T03:17:54.180Z,0.6
2019-05-17T03:19:05.178Z,0.4
2019-05-17T03:20:14.674Z,0
2019-05-17T03:20:53.458Z,0.2
2019-05-17T03:22:08.617Z,0.8
2019-05-17T03:23:14.381Z,0.6
2019-05-17T03:24:26.283Z,0.4
2019-05-17T03:25:04.420Z,0.2
2019-05-17T03:26:14.349Z,0.6
2019-05-17T03:26:53.520Z,0.2
2019-05-17T03:28:04.052Z,0
2019-05-17T03:29:14.687Z,0
2019-05-17T03:29:54.482Z,0
2019-05-17T03:31:17.682Z,0
2019-05-17T03:32:08.264Z,0
2019-05-17T03:32:57.614Z,0
2019-05-17T03:34:08.084Z,0
2019-05-17T03:35:18.942Z,0
2019-05-17T03:35:57.705Z,0
2019-05-17T03:37:08.369Z,0
2019-05-17T03:38:15.054Z,0
2019-05-17T03:38:53.604Z,0
2019-05-17T03:41:08.988Z,0
2019-05-17T03:41:28.583Z,0
2019-05-17T03:43:03.696Z,0
2019-05-17T03:43:44.912Z,0
2019-05-17T03:44:53.789Z,0
2019-05-17T03:46:03.731Z,0
2019-05-17T03:47:14.340Z,0
2019-05-17T03:47:53.986Z,0
2019-05-17T03:49:04.789Z,0
2019-05-17T03:49:44.134Z,0
2019-05-17T03:50:53.829Z,0
2019-05-17T03:52:03.732Z,0
2019-05-17T03:53:14.394Z,0
2019-05-17T03:53:53.888Z,0
2019-05-17T03:55:04.978Z,0
2019-05-17T03:56:14.425Z,0
2019-05-17T03:56:53.761Z,0
2019-05-17T03:58:04.367Z,0
2019-05-17T03:59:14.299Z,0
2019-05-17T03:59:53.230Z,0
2019-05-17T04:01:05.078Z,0
2019-05-17T04:02:14.349Z,0
2019-05-17T04:02:54.359Z,0
2019-05-17T04:04:03.986Z,0
2019-05-17T04:05:14.464Z,0
2019-05-17T04:05:53.756Z,0
2019-05-17T04:07:04.302Z,0
2019-05-17T04:08:14.888Z,0
2019-05-17T04:08:53.498Z,0
2019-05-17T04:10:05.435Z,0
2019-05-17T04:11:36.819Z,0
2019-05-17T04:13:05.287Z,0
2019-05-17T04:14:14.919Z,0
2019-05-17T04:14:54.179Z,0
2019-05-17T04:15:38.371Z,0
2019-05-17T04:16:15.066Z,0
2019-05-17T04:16:53.904Z,0
2019-05-17T04:18:05.310Z,0
2019-05-17T04:19:14.922Z,0
2019-05-17T04:19:54.186Z,0
2019-05-17T04:21:04.350Z,0
2019-05-17T04:22:14.932Z,0
2019-05-17T04:22:53.463Z,0
2019-05-17T04:24:14.337Z,0
2019-05-17T04:24:53.236Z,0
2019-05-17T04:26:05.188Z,0
2019-05-17T04:27:14.605Z,0
2019-05-17T04:27:54.036Z,0
2019-05-17T04:29:04.439Z,0
2019-05-17T04:30:14.496Z,0
2019-05-17T04:30:53.648Z,0
2019-05-17T04:32:04.989Z,0
2019-05-17T04:33:14.318Z,0
2019-05-17T04:33:53.874Z,0
2019-05-17T04:35:04.642Z,0
2019-05-17T04:36:14.322Z,0
2019-05-17T04:36:52.972Z,0
2019-05-17T04:38:05.274Z,0
2019-05-17T04:39:14.520Z,0
2019-05-17T04:39:53.337Z,0
2019-05-17T04:41:04.292Z,0
2019-05-17T04:41:55.188Z,0
2019-05-17T04:42:53.434Z,0
2019-05-17T04:44:03.603Z,0
2019-05-17T04:45:14.452Z,0
2019-05-17T04:45:54.230Z,0
2019-05-17T04:47:04.161Z,0
2019-05-17T04:48:14.333Z,0
2019-05-17T04:48:54.232Z,0
2019-05-17T04:50:05.012Z,0
2019-05-17T04:51:14.355Z,0
2019-05-17T04:51:53.353Z,0
2019-05-17T04:53:03.805Z,0
2019-05-17T04:54:14.885Z,0
2019-05-17T04:54:54.535Z,0
2019-05-17T04:56:04.187Z,0
2019-05-17T04:57:14.306Z,0
2019-05-17T04:57:53.896Z,0.2
2019-05-17T04:59:04.501Z,0
2019-05-17T05:00:14.578Z,0.2
2019-05-17T05:00:54.081Z,0.4
2019-05-17T05:02:04.254Z,0
2019-05-17T05:03:14.349Z,0
2019-05-17T05:03:53.237Z,0
2019-05-17T05:05:04.320Z,0
2019-05-17T05:06:14.462Z,0
2019-05-17T05:06:53.235Z,0
2019-05-17T05:08:04.180Z,0
2019-05-17T05:09:14.278Z,0
2019-05-17T05:09:53.160Z,0
2019-05-17T05:11:05.054Z,0
2019-05-17T05:12:06.657Z,0
2019-05-17T05:12:53.320Z,0
2019-05-17T05:14:03.682Z,0
2019-05-17T05:15:14.389Z,0
2019-05-17T05:15:52.915Z,0
2019-05-17T05:17:03.427Z,0
2019-05-17T05:18:14.683Z,0
2019-05-17T05:18:52.803Z,0
2019-05-17T05:20:03.790Z,0
2019-05-17T05:21:14.297Z,0
2019-05-17T05:21:52.820Z,0
2019-05-17T05:23:03.500Z,0.2
2019-05-17T05:24:14.330Z,0
2019-05-17T05:24:52.758Z,0
2019-05-17T05:26:03.954Z,0
2019-05-17T05:27:14.297Z,0
2019-05-17T05:27:52.410Z,0
2019-05-17T05:29:03.084Z,0
2019-05-17T05:30:14.273Z,0
2019-05-17T05:30:52.947Z,0
2019-05-17T05:32:03.482Z,0
2019-05-17T05:32:52.725Z,0
2019-05-17T05:34:02.804Z,0
2019-05-17T05:35:14.308Z,0
2019-05-17T05:35:52.423Z,0
2019-05-17T05:37:03.076Z,0
2019-05-17T05:38:14.303Z,0
2019-05-17T05:38:52.276Z,0
2019-05-17T05:40:03.022Z,0
2019-05-17T05:41:14.238Z,0
2019-05-17T05:42:13.680Z,0
2019-05-17T05:43:03.168Z,0
2019-05-17T05:44:14.334Z,0
2019-05-17T05:44:55.657Z,0
2019-05-17T05:46:03.415Z,0
2019-05-17T05:47:14.290Z,0
2019-05-17T05:47:52.613Z,0
2019-05-17T05:49:02.727Z,0
2019-05-17T05:50:14.255Z,0
2019-05-17T05:50:52.872Z,0
2019-05-17T05:52:02.879Z,0
2019-05-17T05:53:14.345Z,0
2019-05-17T05:53:52.952Z,0
2019-05-17T05:55:02.467Z,0
2019-05-17T05:56:14.332Z,0
2019-05-17T05:56:52.649Z,0
2019-05-17T05:58:03.881Z,0
2019-05-17T05:59:14.274Z,0
2019-05-17T05:59:52.589Z,0.2
2019-05-17T06:01:03.437Z,0
2019-05-17T06:02:14.254Z,0.4
2019-05-17T06:02:53.067Z,0.2
2019-05-17T06:04:03.571Z,0.4
2019-05-17T06:05:18.006Z,0.2
2019-05-17T06:05:52.958Z,0
2019-05-17T06:07:03.842Z,0.6
2019-05-17T06:08:14.293Z,0.2
2019-05-17T06:08:52.823Z,0.2
2019-05-17T06:10:03.087Z,0
2019-05-17T06:10:43.391Z,0
2019-05-17T06:11:52.673Z,0
2019-05-17T06:13:04.007Z,0
2019-05-17T06:14:14.252Z,0
2019-05-17T06:14:52.796Z,0
2019-05-17T06:16:03.547Z,0
2019-05-17T06:17:14.327Z,0
2019-05-17T06:17:52.753Z,0
2019-05-17T06:19:03.213Z,0
2019-05-17T06:20:14.269Z,0
2019-05-17T06:20:52.866Z,0.4
2019-05-17T06:22:03.561Z,0
2019-05-17T06:23:14.258Z,0
2019-05-17T06:23:52.402Z,0
2019-05-17T06:25:04.847Z,0.6
2019-05-17T06:26:14.229Z,0.6
2019-05-17T06:26:52.690Z,0
2019-05-17T06:28:02.503Z,0.2
2019-05-17T06:29:14.298Z,0.4
2019-05-17T06:29:52.362Z,0.6
2019-05-17T06:31:03.819Z,0
2019-05-17T06:32:14.279Z,0.2
2019-05-17T06:32:52.464Z,0.2
2019-05-17T06:33:35.368Z,0.2
2019-05-17T06:35:14.234Z,0
2019-05-17T06:35:53.050Z,0.2
2019-05-17T06:37:03.114Z,0
2019-05-17T06:38:14.335Z,0.6
2019-05-17T06:38:52.783Z,0.4
2019-05-17T06:40:03.299Z,0.4
2019-05-17T06:41:14.326Z,0.2
2019-05-17T06:41:52.673Z,0
2019-05-17T06:42:45.851Z,0
2019-05-17T06:43:41.860Z,0
2019-05-17T06:44:52.870Z,0
2019-05-17T06:46:02.772Z,0.7
2019-05-17T06:47:14.219Z,0.6
2019-05-17T06:47:52.610Z,0.6
2019-05-17T06:49:03.868Z,0.6
2019-05-17T06:50:15.428Z,0.6
2019-05-17T06:50:52.709Z,0.4
2019-05-17T06:52:03.330Z,0.4
2019-05-17T06:53:14.273Z,0.6
2019-05-17T06:53:52.631Z,0.6
2019-05-17T06:55:06.638Z,0.2
2019-05-17T06:56:14.240Z,0
2019-05-17T06:56:52.754Z,0
2019-05-17T06:58:02.594Z,0
2019-05-17T06:59:14.219Z,0.2
2019-05-17T07:00:26.275Z,0.4
2019-05-17T07:01:02.580Z,0
2019-05-17T07:02:14.282Z,0
2019-05-17T07:03:26.239Z,0.6
2019-05-17T07:04:02.201Z,0.8
2019-05-17T07:05:14.253Z,0.6
2019-05-17T07:06:26.185Z,0.2
2019-05-17T07:07:02.337Z,0
2019-05-17T07:08:14.225Z,0.6
2019-05-17T07:09:26.305Z,0
2019-05-17T07:10:02.640Z,0.2
2019-05-17T07:11:14.194Z,0
2019-05-17T07:11:52.170Z,0
2019-05-17T07:13:02.925Z,0.6
2019-05-17T07:14:14.270Z,0
2019-05-17T07:16:02.176Z,0.4
2019-05-17T07:17:14.245Z,0.2
2019-05-17T07:18:26.174Z,0.2
2019-05-17T07:19:02.293Z,0.2
2019-05-17T07:20:14.204Z,0.2
2019-05-17T07:21:26.270Z,0.8
2019-05-17T07:22:02.284Z,0.2
2019-05-17T07:24:26.279Z,0.4
2019-05-17T07:25:02.249Z,0.2
2019-05-17T07:26:14.247Z,0
2019-05-17T07:27:46.339Z,0.4
2019-05-17T07:29:14.261Z,0.8
2019-05-17T07:30:26.272Z,0.2
2019-05-17T07:31:02.261Z,0.2
2019-05-17T07:32:14.178Z,0.8
2019-05-17T07:33:02.313Z,0.8
2019-05-17T07:34:14.253Z,0.8
2019-05-17T07:36:02.278Z,0.8
2019-05-17T07:37:14.215Z,0.8
2019-05-17T07:38:26.296Z,0
2019-05-17T07:39:02.245Z,0
2019-05-17T07:39:42.941Z,0
2019-05-17T07:41:26.245Z,0.4
2019-05-17T07:42:02.238Z,0.2
2019-05-17T07:43:15.745Z,0.4
2019-05-17T07:44:26.204Z,0.6
2019-05-17T07:45:02.211Z,0.8
2019-05-17T07:46:14.240Z,0.8
2019-05-17T07:46:52.657Z,0.8
2019-05-17T07:48:02.261Z,0.6
2019-05-17T07:49:14.203Z,0.2
2019-05-17T07:50:26.254Z,0
2019-05-17T07:51:02.290Z,0.4
2019-05-17T07:52:14.192Z,0.6
2019-05-17T07:53:26.235Z,0.8
2019-05-17T07:54:02.194Z,0.8
2019-05-17T07:55:14.267Z,0.4
2019-05-17T07:57:02.181Z,0.2
2019-05-17T07:58:14.219Z,0
2019-05-17T07:59:26.156Z,0.2
2019-05-17T08:00:02.267Z,0.2
2019-05-17T08:01:14.195Z,0.2
2019-05-17T08:02:26.268Z,0.4
2019-05-17T08:03:02.496Z,0.6
2019-05-17T08:04:14.165Z,0.8
2019-05-17T08:05:26.221Z,0.4
2019-05-17T08:06:14.260Z,0.2
2019-05-17T08:08:26.181Z,0.4
2019-05-17T08:09:05.293Z,0.6
2019-05-17T08:10:51.873Z,0.6
2019-05-17T08:11:26.150Z,0.5
2019-05-17T08:12:41.714Z,0.6
2019-05-17T08:13:34.021Z,0.8
2019-05-17T08:14:34.007Z,0.8
2019-05-17T08:15:40.582Z,0.4
2019-05-17T08:16:51.018Z,0.6
2019-05-17T08:17:26.219Z,0.8
2019-05-17T08:18:40.687Z,0.8
2019-05-17T08:19:50.717Z,0.6
2019-05-17T08:20:26.162Z,0.6
2019-05-17T08:21:40.614Z,0.4
2019-05-17T08:22:26.301Z,0.8
2019-05-17T08:23:14.245Z,0.6
2019-05-17T08:23:51.468Z,0.8
2019-05-17T08:24:26.154Z,0.8
2019-05-17T08:25:56.690Z,0.4
2019-05-17T08:26:26.233Z,0.6
2019-05-17T08:27:41.351Z,0.2
2019-05-17T08:28:50.826Z,0.8
2019-05-17T08:29:40.662Z,0.9
2019-05-17T08:30:51.080Z,0.9
2019-05-17T08:31:26.233Z,0.8
2019-05-17T08:32:41.149Z,0.8
2019-05-17T08:34:02.152Z,0.6
2019-05-17T08:34:40.614Z,0.8
2019-05-17T08:35:50.359Z,1
2019-05-17T08:36:26.135Z,0.6
2019-05-17T08:37:50.809Z,0.8
2019-05-17T08:38:26.197Z,0.8
2019-05-17T08:39:40.718Z,1
2019-05-17T08:40:16.165Z,0.8
2019-05-17T08:41:26.214Z,0.6
2019-05-17T08:42:40.929Z,1
2019-05-17T08:43:47.575Z,0.6
2019-05-17T08:45:02.272Z,1
2019-05-17T08:45:41.312Z,0.8
2019-05-17T08:47:26.228Z,1
2019-05-17T08:48:02.294Z,0.4
2019-05-17T08:49:14.132Z,0.6
2019-05-17T08:50:26.188Z,0.6
2019-05-17T08:51:02.164Z,0.6
2019-05-17T08:52:26.122Z,1
2019-05-17T08:53:02.270Z,1.1
2019-05-17T08:54:14.154Z,0.9
2019-05-17T08:55:02.156Z,1.3
2019-05-17T08:56:14.200Z,0.8
2019-05-17T08:57:26.160Z,0.2
2019-05-17T08:58:40.854Z,0.8
2019-05-17T08:59:14.182Z,0.8
2019-05-17T08:59:50.611Z,0.9
2019-05-17T09:01:02.244Z,1
2019-05-17T09:01:42.509Z,1
2019-05-17T09:03:02.143Z,0.8
2019-05-17T09:03:38.109Z,0.8
2019-05-17T09:04:50.639Z,0.8
2019-05-17T09:05:53.723Z,0.8
2019-05-17T09:06:40.470Z,0.8
2019-05-17T09:07:14.168Z,0.8
2019-05-17T09:08:02.158Z,0.9
2019-05-17T09:08:40.838Z,0.9
2019-05-17T09:09:51.008Z,0.8
2019-05-17T09:11:02.140Z,0.9
2019-05-17T09:11:40.305Z,1.1
2019-05-17T09:12:26.098Z,1
2019-05-17T09:13:02.185Z,0.6
2019-05-17T09:13:58.428Z,0.2
2019-05-17T09:14:50.509Z,0.4
2019-05-17T09:16:02.149Z,0.6
2019-05-17T09:16:40.901Z,0.8
2019-05-17T09:17:50.701Z,0.8
2019-05-17T09:19:02.173Z,0.5
2019-05-17T09:19:40.203Z,0.7
2019-05-17T09:20:50.410Z,0.9
2019-05-17T09:22:02.095Z,0.9
2019-05-17T09:22:40.602Z,1.1
2019-05-17T09:23:51.223Z,0.6
2019-05-17T09:25:02.214Z,1.2
2019-05-17T09:25:40.587Z,1.3
2019-05-17T09:26:50.192Z,0.6
2019-05-17T09:27:40.647Z,0.9
2019-05-17T09:28:50.762Z,0.8
2019-05-17T09:30:02.262Z,1
2019-05-17T09:30:41.366Z,0.8
2019-05-17T09:31:51.288Z,0.8
2019-05-17T09:33:02.156Z,0.4
2019-05-17T09:34:14.095Z,1.1
2019-05-17T09:34:50.704Z,0.8
2019-05-17T09:36:02.179Z,0.2
2019-05-17T09:37:22.958Z,0.5
2019-05-17T09:38:02.236Z,0.6
2019-05-17T09:38:40.615Z,0.8
2019-05-17T09:39:50.172Z,0.9
2019-05-17T09:40:41.027Z,1
2019-05-17T09:42:02.200Z,0.8
2019-05-17T09:42:41.756Z,0.8
2019-05-17T09:43:26.146Z,0.9
2019-05-17T09:44:16.946Z,0.9
2019-05-17T09:45:14.183Z,0.8
2019-05-17T09:46:02.716Z,0.6
2019-05-17T09:46:40.409Z,0.8
2019-05-17T09:47:51.445Z,0.8
2019-05-17T09:49:02.231Z,0.6
2019-05-17T09:49:40.185Z,0.4
2019-05-17T09:50:51.328Z,1
2019-05-17T09:52:02.129Z,1.2
2019-05-17T09:52:40.932Z,1.1
2019-05-17T09:53:50.521Z,0.8
2019-05-17T09:54:45.911Z,0.6
2019-05-17T09:55:40.473Z,0.2
2019-05-17T09:56:50.601Z,0.8
2019-05-17T09:58:02.166Z,0.8
2019-05-17T09:58:40.531Z,0.8
2019-05-17T09:59:50.488Z,0.9
2019-05-17T10:01:02.469Z,0.4
2019-05-17T10:01:40.227Z,0.4
2019-05-17T10:03:14.128Z,1
2019-05-17T10:03:51.460Z,0.8
2019-05-17T10:04:26.183Z,0.2
2019-05-17T10:05:41.419Z,0.8
2019-05-17T10:06:14.057Z,0.9
2019-05-17T10:07:26.133Z,0.9
2019-05-17T10:08:40.067Z,0.8
2019-05-17T10:09:14.144Z,1
2019-05-17T10:10:26.096Z,0
2019-05-17T10:11:12.660Z,0.2
2019-05-17T10:12:14.145Z,0.8
2019-05-17T10:13:26.044Z,1
2019-05-17T10:14:38.108Z,0.8
2019-05-17T10:15:14.085Z,1.2
2019-05-17T10:16:26.146Z,0.8
2019-05-17T10:17:38.114Z,0.2
2019-05-17T10:18:14.073Z,0.6
2019-05-17T10:19:26.112Z,1
2019-05-17T10:20:40.449Z,0.6
2019-05-17T10:21:14.129Z,0.9
2019-05-17T10:22:26.079Z,1
2019-05-17T10:23:40.922Z,0.8
2019-05-17T10:24:14.127Z,1.3
2019-05-17T10:25:26.166Z,1.3
2019-05-17T10:26:14.185Z,1.3
2019-05-17T10:27:02.163Z,1.9
2019-05-17T10:27:40.973Z,1.2
2019-05-17T10:28:14.098Z,0.4
2019-05-17T10:29:02.155Z,0.8
2019-05-17T10:29:50.993Z,0.8
2019-05-17T10:30:26.053Z,0.9
2019-05-17T10:31:14.121Z,0.9
2019-05-17T10:32:26.131Z,0.9
2019-05-17T10:33:40.508Z,0.9
2019-05-17T10:34:26.061Z,1.3
2019-05-17T10:35:41.225Z,0.8
2019-05-17T10:36:14.088Z,0.8
2019-05-17T10:37:26.167Z,0.8
2019-05-17T10:38:40.286Z,0.8
2019-05-17T10:39:26.100Z,0.9
2019-05-17T10:40:14.121Z,1.7
2019-05-17T10:41:02.090Z,1.8
2019-05-17T10:41:40.913Z,2
2019-05-17T10:42:14.154Z,1.8
2019-05-17T10:43:26.076Z,1.2
2019-05-17T10:44:14.070Z,1.4
2019-05-17T10:44:55.369Z,1.6
2019-05-17T10:46:40.612Z,1.5
2019-05-17T10:47:14.074Z,1
2019-05-17T10:48:02.061Z,0.6
2019-05-17T10:48:41.328Z,1.1
2019-05-17T10:49:50.536Z,2
2019-05-17T10:50:26.078Z,1.2
2019-05-17T10:51:02.132Z,1
2019-05-17T10:51:40.512Z,1.1
2019-05-17T10:52:26.110Z,0.8
2019-05-17T10:53:02.121Z,1
2019-05-17T10:54:05.219Z,1.3
2019-05-17T10:54:40.668Z,0.4
2019-05-17T10:55:14.045Z,0.2
2019-05-17T10:56:38.140Z,0.8
2019-05-17T10:57:14.100Z,0.8
2019-05-17T10:58:26.032Z,0.8
2019-05-17T10:59:02.258Z,1
2019-05-17T11:00:14.056Z,0.4
2019-05-17T11:01:26.126Z,1
2019-05-17T11:02:02.091Z,1
2019-05-17T11:03:14.061Z,0.9
2019-05-17T11:05:02.072Z,0.6
2019-05-17T11:06:14.192Z,0.8
2019-05-17T11:07:26.056Z,0.6
2019-05-17T11:08:02.021Z,0.4
2019-05-17T11:09:14.092Z,0.6
2019-05-17T11:09:51.944Z,0.8
2019-05-17T11:11:02.115Z,0.8
2019-05-17T11:12:14.048Z,0.8
2019-05-17T11:13:26.106Z,0.7
2019-05-17T11:14:02.200Z,0.9
2019-05-17T11:15:12.246Z,0.8
2019-05-17T11:16:26.078Z,1.2
2019-05-17T11:17:02.249Z,1.2
2019-05-17T11:18:14.092Z,1.5
2019-05-17T11:19:26.049Z,1.8
2019-05-17T11:20:14.037Z,1.4
2019-05-17T11:21:26.098Z,0.6
2019-05-17T11:22:02.125Z,0.6
2019-05-17T11:23:14.146Z,0.9
2019-05-17T11:24:26.067Z,1.2
2019-05-17T11:25:02.846Z,1.4
2019-05-17T11:26:26.126Z,1.1
2019-05-17T11:27:02.174Z,1.5
2019-05-17T11:28:14.037Z,1.4
2019-05-17T11:29:26.172Z,1.2
2019-05-17T11:30:02.153Z,1.3
2019-05-17T11:31:26.010Z,0.9
2019-05-17T11:32:02.110Z,0.9
2019-05-17T11:33:14.061Z,0.9
2019-05-17T11:34:26.531Z,1.1
2019-05-17T11:35:02.173Z,1
2019-05-17T11:36:14.012Z,0.8
2019-05-17T11:37:26.100Z,0.8
2019-05-17T11:38:02.060Z,0.8
2019-05-17T11:39:14.097Z,0.8
2019-05-17T11:40:26.058Z,1.1
2019-05-17T11:41:22.456Z,1.4
2019-05-17T11:42:14.079Z,0.9
2019-05-17T11:43:26.086Z,0.9
2019-05-17T11:44:02.147Z,0.8
2019-05-17T11:45:33.178Z,1.1
2019-05-17T11:46:37.241Z,0.8
2019-05-17T11:47:14.109Z,0.9
2019-05-17T11:48:26.082Z,0.8
2019-05-17T11:49:02.004Z,0.9
2019-05-17T11:50:14.059Z,1.2
2019-05-17T11:51:28.289Z,1.1
2019-05-17T11:52:02.117Z,1.2
2019-05-17T11:53:26.123Z,1
2019-05-17T11:54:02.078Z,1.1
2019-05-17T11:55:14.142Z,0.8
2019-05-17T11:56:26.016Z,0.9
2019-05-17T11:57:02.002Z,0.9
2019-05-17T11:58:14.079Z,0.9
2019-05-17T11:59:26.037Z,1.2
2019-05-17T12:00:02.118Z,0.8
2019-05-17T12:01:14.020Z,0.6
2019-05-17T12:02:26.089Z,1.5
2019-05-17T12:03:25.985Z,1
2019-05-17T12:04:02.063Z,0.8
2019-05-17T12:04:38.095Z,0.9
2019-05-17T12:05:50.006Z,0.8
2019-05-17T12:06:26.073Z,0.6
2019-05-17T12:07:50.039Z,1.2
2019-05-17T12:08:26.000Z,1.4
2019-05-17T12:09:38.761Z,1.3
2019-05-17T12:10:50.603Z,1
2019-05-17T12:11:25.968Z,1.1
2019-05-17T12:13:02.017Z,1.2
2019-05-17T12:13:38.059Z,1.4
2019-05-17T12:14:38.038Z,0.8
2019-05-17T12:15:14.072Z,0.9
2019-05-17T12:15:50.072Z,1.2
2019-05-17T12:17:02.082Z,0.8
2019-05-17T12:17:38.081Z,0.8
2019-05-17T12:18:49.999Z,0.6
2019-05-17T12:20:02.390Z,0.6
2019-05-17T12:20:38.140Z,0.6
2019-05-17T12:21:50.075Z,0.6
2019-05-17T12:23:02.011Z,0.2
2019-05-17T12:23:38.041Z,0.5
2019-05-17T12:24:50.065Z,0.8
2019-05-17T12:26:02.043Z,0.8
2019-05-17T12:26:38.089Z,0.9
2019-05-17T12:27:50.019Z,0.4
2019-05-17T12:29:02.103Z,0
2019-05-17T12:29:38.204Z,0
2019-05-17T12:30:49.989Z,0
2019-05-17T12:32:02.238Z,0.8
2019-05-17T12:32:38.022Z,1
2019-05-17T12:33:26.003Z,1.8
2019-05-17T12:34:02.134Z,1.7
2019-05-17T12:34:38.084Z,1.2
2019-05-17T12:35:50.080Z,0.8
2019-05-17T12:37:02.109Z,0.8
2019-05-17T12:37:38.105Z,0.6
2019-05-17T12:38:49.961Z,0.6
2019-05-17T12:40:02.306Z,0.8
2019-05-17T12:40:38.016Z,0.6
2019-05-17T12:41:50.212Z,0.8
2019-05-17T12:43:02.005Z,0.4
2019-05-17T12:43:37.991Z,0.8
2019-05-17T12:44:50.031Z,0.8
2019-05-17T12:46:02.638Z,0.8
2019-05-17T12:46:38.073Z,0.6
2019-05-17T12:47:49.993Z,0.8
2019-05-17T12:49:02.956Z,0.6
2019-05-17T12:49:38.033Z,0.6
2019-05-17T12:50:49.959Z,1
2019-05-17T12:52:02.035Z,0.4
2019-05-17T12:52:38.132Z,0
2019-05-17T12:53:50.056Z,0.2
2019-05-17T12:55:01.974Z,1
2019-05-17T12:55:37.971Z,1
2019-05-17T12:56:50.034Z,0.8
2019-05-17T12:58:02.125Z,0.6
2019-05-17T12:58:38.122Z,0.6
2019-05-17T12:59:49.992Z,0.8
2019-05-17T13:01:02.356Z,0.9
2019-05-17T13:01:38.046Z,0.8
2019-05-17T13:02:49.963Z,0.8
2019-05-17T13:04:02.563Z,0.8
2019-05-17T13:04:38.024Z,0.8
2019-05-17T13:05:50.039Z,0.9
2019-05-17T13:07:02.095Z,1
2019-05-17T13:07:41.311Z,0.8
2019-05-17T13:08:50.241Z,0.8
2019-05-17T13:10:02.288Z,0
2019-05-17T13:10:38.022Z,0.4
2019-05-17T13:11:50.027Z,0.6
2019-05-17T13:12:49.998Z,1.8
2019-05-17T13:13:26.018Z,2.1
2019-05-17T13:14:14.058Z,1.9
2019-05-17T13:14:49.932Z,1.6
2019-05-17T13:16:19.954Z,0.9
2019-05-17T13:17:13.928Z,1
2019-05-17T13:17:50.062Z,1
2019-05-17T13:18:38.028Z,0.8
2019-05-17T13:19:26.347Z,1.1
2019-05-17T13:20:03.808Z,0.9
2019-05-17T13:21:14.027Z,0.9
2019-05-17T13:21:50.005Z,0.4
2019-05-17T13:23:02.095Z,0.8
2019-05-17T13:24:14.004Z,0.6
2019-05-17T13:24:49.998Z,0.6
2019-05-17T13:26:02.032Z,0.8
2019-05-17T13:27:14.013Z,0.6
2019-05-17T13:27:50.050Z,0.8
2019-05-17T13:29:02.007Z,0.8
2019-05-17T13:30:14.057Z,0.4
2019-05-17T13:30:50.021Z,0.4
2019-05-17T13:32:01.965Z,1
2019-05-17T13:33:14.019Z,1
2019-05-17T13:33:50.007Z,1.1
2019-05-17T13:35:01.994Z,0.6
2019-05-17T13:36:14.089Z,1.1
2019-05-17T13:36:49.963Z,1.3
2019-05-17T13:38:02.021Z,0.8
2019-05-17T13:39:13.955Z,0.8
2019-05-17T13:39:49.934Z,0.8
2019-05-17T13:41:02.097Z,0
2019-05-17T13:42:14.036Z,0.4
2019-05-17T13:42:50.024Z,0.7
2019-05-17T13:44:02.079Z,1.3
2019-05-17T13:45:25.911Z,1.2
2019-05-17T13:46:02.582Z,1.3
2019-05-17T13:47:13.969Z,1
2019-05-17T13:47:49.980Z,0.9
2019-05-17T13:49:01.982Z,0.8
2019-05-17T13:50:13.909Z,0.6
2019-05-17T13:50:53.192Z,0.6
2019-05-17T13:52:02.164Z,0.6
2019-05-17T13:53:14.445Z,0.8
2019-05-17T13:53:49.975Z,0.8
2019-05-17T13:55:01.963Z,0.6
2019-05-17T13:56:14.134Z,0.4
2019-05-17T13:57:02.183Z,0.6
2019-05-17T13:57:50.101Z,0.9
2019-05-17T13:59:02.094Z,0.6
2019-05-17T14:00:14.048Z,0.4
2019-05-17T14:00:49.990Z,0.2
2019-05-17T14:02:02.489Z,0.8
2019-05-17T14:03:13.931Z,1.1
2019-05-17T14:04:02.057Z,1
2019-05-17T14:05:14.050Z,1.5
2019-05-17T14:05:49.968Z,1.2
2019-05-17T14:07:02.035Z,1